sensor_id;sensor_type;location;lat;lon;timestamp;temperature;humidity
19908;DHT22;10116;53.112;7.356;2023-07-31T00:00:08;26.20;99.90
19908;DHT22;10116;53.112;7.356;2023-07-31T00:02:36;26.20;99.90
19908;DHT22;10116;53.112;7.356;2023-07-31T00:05:02;26.20;99.90
19908;DHT22;10116;53.112;7.356;2023-07-31T00:07:28;26.20;99.90
19908;DHT22;10116;53.112;7.356;2023-07-31T00:09:53;26.20;99.90
19908;DHT22;10116;53.112;7.356;2023-07-31T00:12:22;26.20;99.90
19908;DHT22;10116;53.112;7.356;2023-07-31T00:14:48;26.20;99.90
19908;DHT22;10116;53.112;7.356;2023-07-31T00:17:14;26.20;99.90
19908;DHT22;10116;53.112;7.356;2023-07-31T00:19:40;26.20;99.90
19908;DHT22;10116;53.112;7.356;2023-07-31T00:22:05;26.20;99.90
19908;DHT22;10116;53.112;7.356;2023-07-31T00:24:31;26.20;99.90
19908;DHT22;10116;53.112;7.356;2023-07-31T00:26:56;26.10;99.90
19908;DHT22;10116;53.112;7.356;2023-07-31T00:29:22;26.20;99.90
19908;DHT22;10116;53.112;7.356;2023-07-31T00:31:48;26.10;99.90
19908;DHT22;10116;53.112;7.356;2023-07-31T00:34:13;26.10;99.90
19908;DHT22;10116;53.112;7.356;2023-07-31T00:36:39;26.10;99.90
19908;DHT22;10116;53.112;7.356;2023-07-31T00:39:04;26.10;99.90
19908;DHT22;10116;53.112;7.356;2023-07-31T00:41:30;26.10;99.90
19908;DHT22;10116;53.112;7.356;2023-07-31T00:43:56;26.10;99.90
19908;DHT22;10116;53.112;7.356;2023-07-31T00:46:21;26.10;99.90
19908;DHT22;10116;53.112;7.356;2023-07-31T00:48:47;26.10;99.90
19908;DHT22;10116;53.112;7.356;2023-07-31T00:51:14;26.00;99.90
19908;DHT22;10116;53.112;7.356;2023-07-31T00:53:40;26.00;99.90
19908;DHT22;10116;53.112;7.356;2023-07-31T00:56:06;26.00;99.90
19908;DHT22;10116;53.112;7.356;2023-07-31T00:58:33;26.10;99.90
19908;DHT22;10116;53.112;7.356;2023-07-31T01:00:58;26.00;99.90
19908;DHT22;10116;53.112;7.356;2023-07-31T01:03:24;26.10;99.90
19908;DHT22;10116;53.112;7.356;2023-07-31T01:06:08;26.00;99.90
19908;DHT22;10116;53.112;7.356;2023-07-31T01:11:28;26.00;99.90
19908;DHT22;10116;53.112;7.356;2023-07-31T01:13:55;26.00;99.90
19908;DHT22;10116;53.112;7.356;2023-07-31T01:16:20;26.00;99.90
19908;DHT22;10116;53.112;7.356;2023-07-31T01:18:46;26.00;99.90
19908;DHT22;10116;53.112;7.356;2023-07-31T01:24:21;26.00;99.90
19908;DHT22;10116;53.112;7.356;2023-07-31T01:26:55;26.00;99.90
19908;DHT22;10116;53.112;7.356;2023-07-31T01:29:32;26.00;99.90
19908;DHT22;10116;53.112;7.356;2023-07-31T01:32:02;26.00;99.90
19908;DHT22;10116;53.112;7.356;2023-07-31T01:34:29;25.90;99.90
19908;DHT22;10116;53.112;7.356;2023-07-31T01:36:56;26.00;99.90
19908;DHT22;10116;53.112;7.356;2023-07-31T01:39:23;26.00;99.90
19908;DHT22;10116;53.112;7.356;2023-07-31T01:41:49;26.00;99.90
19908;DHT22;10116;53.112;7.356;2023-07-31T01:44:15;25.90;99.90
19908;DHT22;10116;53.112;7.356;2023-07-31T01:46:40;25.90;99.90
19908;DHT22;10116;53.112;7.356;2023-07-31T01:49:06;25.90;99.90
19908;DHT22;10116;53.112;7.356;2023-07-31T01:51:31;25.90;99.90
19908;DHT22;10116;53.112;7.356;2023-07-31T01:54:00;25.90;99.90
19908;DHT22;10116;53.112;7.356;2023-07-31T01:56:26;25.90;99.90
19908;DHT22;10116;53.112;7.356;2023-07-31T01:58:51;25.90;99.90
19908;DHT22;10116;53.112;7.356;2023-07-31T02:01:17;25.90;99.90
19908;DHT22;10116;53.112;7.356;2023-07-31T02:03:42;25.90;99.90
19908;DHT22;10116;53.112;7.356;2023-07-31T02:06:08;25.90;99.90
19908;DHT22;10116;53.112;7.356;2023-07-31T02:08:33;25.90;99.90
19908;DHT22;10116;53.112;7.356;2023-07-31T02:10:59;25.90;99.90
19908;DHT22;10116;53.112;7.356;2023-07-31T02:13:25;25.90;99.90
19908;DHT22;10116;53.112;7.356;2023-07-31T02:15:50;25.90;99.90
19908;DHT22;10116;53.112;7.356;2023-07-31T02:18:16;25.90;99.90
19908;DHT22;10116;53.112;7.356;2023-07-31T02:20:42;25.90;99.90
19908;DHT22;10116;53.112;7.356;2023-07-31T02:23:07;25.80;99.90
19908;DHT22;10116;53.112;7.356;2023-07-31T02:25:33;25.80;99.90
19908;DHT22;10116;53.112;7.356;2023-07-31T02:27:58;25.80;99.90
19908;DHT22;10116;53.112;7.356;2023-07-31T02:30:24;25.80;99.90
19908;DHT22;10116;53.112;7.356;2023-07-31T02:32:50;25.80;99.90
19908;DHT22;10116;53.112;7.356;2023-07-31T02:35:15;25.80;99.90
19908;DHT22;10116;53.112;7.356;2023-07-31T02:37:42;25.80;99.90
19908;DHT22;10116;53.112;7.356;2023-07-31T02:40:08;25.90;99.90
19908;DHT22;10116;53.112;7.356;2023-07-31T02:42:33;25.80;99.90
19908;DHT22;10116;53.112;7.356;2023-07-31T02:44:59;25.80;99.90
19908;DHT22;10116;53.112;7.356;2023-07-31T02:47:24;25.80;99.90
19908;DHT22;10116;53.112;7.356;2023-07-31T02:49:50;25.80;99.90
19908;DHT22;10116;53.112;7.356;2023-07-31T02:52:16;25.80;99.90
19908;DHT22;10116;53.112;7.356;2023-07-31T02:54:41;25.80;99.90
19908;DHT22;10116;53.112;7.356;2023-07-31T02:57:07;25.80;99.90
19908;DHT22;10116;53.112;7.356;2023-07-31T02:59:32;25.80;99.90
19908;DHT22;10116;53.112;7.356;2023-07-31T03:01:58;25.80;99.90
19908;DHT22;10116;53.112;7.356;2023-07-31T03:04:24;25.80;99.90
19908;DHT22;10116;53.112;7.356;2023-07-31T03:06:49;25.80;99.90
19908;DHT22;10116;53.112;7.356;2023-07-31T03:09:15;25.80;99.90
19908;DHT22;10116;53.112;7.356;2023-07-31T03:11:41;25.80;99.90
19908;DHT22;10116;53.112;7.356;2023-07-31T03:14:06;25.80;99.90
19908;DHT22;10116;53.112;7.356;2023-07-31T03:16:32;25.80;99.90
19908;DHT22;10116;53.112;7.356;2023-07-31T03:18:58;25.80;99.90
19908;DHT22;10116;53.112;7.356;2023-07-31T03:21:23;25.80;99.90
19908;DHT22;10116;53.112;7.356;2023-07-31T03:23:49;25.80;99.90
19908;DHT22;10116;53.112;7.356;2023-07-31T03:26:14;25.80;99.90
19908;DHT22;10116;53.112;7.356;2023-07-31T03:28:40;25.80;99.90
19908;DHT22;10116;53.112;7.356;2023-07-31T03:31:05;25.80;99.90
19908;DHT22;10116;53.112;7.356;2023-07-31T03:33:31;25.80;99.90
19908;DHT22;10116;53.112;7.356;2023-07-31T03:35:57;25.90;99.90
19908;DHT22;10116;53.112;7.356;2023-07-31T03:38:22;25.90;99.90
19908;DHT22;10116;53.112;7.356;2023-07-31T03:40:48;25.90;99.90
19908;DHT22;10116;53.112;7.356;2023-07-31T03:43:14;26.00;99.90
19908;DHT22;10116;53.112;7.356;2023-07-31T03:45:40;26.00;99.90
19908;DHT22;10116;53.112;7.356;2023-07-31T03:48:06;26.00;99.90
19908;DHT22;10116;53.112;7.356;2023-07-31T03:50:33;26.10;99.90
19908;DHT22;10116;53.112;7.356;2023-07-31T03:52:58;26.00;99.90
19908;DHT22;10116;53.112;7.356;2023-07-31T03:55:24;26.00;99.90
19908;DHT22;10116;53.112;7.356;2023-07-31T03:57:49;26.10;99.90
19908;DHT22;10116;53.112;7.356;2023-07-31T04:00:15;26.10;99.90
19908;DHT22;10116;53.112;7.356;2023-07-31T04:02:40;26.10;99.90
19908;DHT22;10116;53.112;7.356;2023-07-31T04:05:07;26.10;99.90
19908;DHT22;10116;53.112;7.356;2023-07-31T04:07:32;26.10;99.90
19908;DHT22;10116;53.112;7.356;2023-07-31T04:09:59;26.10;99.90
19908;DHT22;10116;53.112;7.356;2023-07-31T04:12:25;26.10;99.90
19908;DHT22;10116;53.112;7.356;2023-07-31T04:14:50;26.10;99.90
19908;DHT22;10116;53.112;7.356;2023-07-31T04:17:17;26.10;99.90
19908;DHT22;10116;53.112;7.356;2023-07-31T04:19:43;26.10;99.90
19908;DHT22;10116;53.112;7.356;2023-07-31T04:22:09;26.10;99.90
19908;DHT22;10116;53.112;7.356;2023-07-31T04:24:35;26.10;99.90
19908;DHT22;10116;53.112;7.356;2023-07-31T04:27:00;26.10;99.90
19908;DHT22;10116;53.112;7.356;2023-07-31T04:29:26;26.10;99.90
19908;DHT22;10116;53.112;7.356;2023-07-31T04:31:51;26.10;99.90
19908;DHT22;10116;53.112;7.356;2023-07-31T04:34:17;26.10;99.90
19908;DHT22;10116;53.112;7.356;2023-07-31T04:36:42;26.10;99.90
19908;DHT22;10116;53.112;7.356;2023-07-31T04:39:08;26.10;99.90
19908;DHT22;10116;53.112;7.356;2023-07-31T04:41:34;26.10;99.90
19908;DHT22;10116;53.112;7.356;2023-07-31T04:43:59;26.10;99.90
19908;DHT22;10116;53.112;7.356;2023-07-31T04:46:25;26.10;99.90
19908;DHT22;10116;53.112;7.356;2023-07-31T04:48:50;26.10;99.90
19908;DHT22;10116;53.112;7.356;2023-07-31T04:51:16;26.10;99.90
19908;DHT22;10116;53.112;7.356;2023-07-31T04:53:42;26.10;99.90
19908;DHT22;10116;53.112;7.356;2023-07-31T04:56:07;26.10;99.90
19908;DHT22;10116;53.112;7.356;2023-07-31T04:58:33;26.10;99.90
19908;DHT22;10116;53.112;7.356;2023-07-31T05:00:58;26.10;99.90
19908;DHT22;10116;53.112;7.356;2023-07-31T05:03:24;26.10;99.90
19908;DHT22;10116;53.112;7.356;2023-07-31T05:05:50;26.00;99.90
19908;DHT22;10116;53.112;7.356;2023-07-31T05:08:17;26.10;99.90
19908;DHT22;10116;53.112;7.356;2023-07-31T05:10:45;26.10;99.90
19908;DHT22;10116;53.112;7.356;2023-07-31T05:13:11;26.10;99.90
19908;DHT22;10116;53.112;7.356;2023-07-31T05:15:36;26.10;99.90
19908;DHT22;10116;53.112;7.356;2023-07-31T05:18:02;26.10;99.90
19908;DHT22;10116;53.112;7.356;2023-07-31T05:20:27;26.10;99.90
19908;DHT22;10116;53.112;7.356;2023-07-31T05:22:53;26.20;99.90
19908;DHT22;10116;53.112;7.356;2023-07-31T05:25:19;26.20;99.90
19908;DHT22;10116;53.112;7.356;2023-07-31T05:27:45;26.20;99.90
19908;DHT22;10116;53.112;7.356;2023-07-31T05:30:10;26.30;99.90
19908;DHT22;10116;53.112;7.356;2023-07-31T05:32:36;26.30;99.90
19908;DHT22;10116;53.112;7.356;2023-07-31T05:35:01;26.30;99.90
19908;DHT22;10116;53.112;7.356;2023-07-31T05:37:27;26.40;99.90
19908;DHT22;10116;53.112;7.356;2023-07-31T05:39:53;26.40;99.90
19908;DHT22;10116;53.112;7.356;2023-07-31T05:42:18;26.40;99.90
19908;DHT22;10116;53.112;7.356;2023-07-31T05:44:44;26.40;99.90
19908;DHT22;10116;53.112;7.356;2023-07-31T05:47:10;26.40;99.90
19908;DHT22;10116;53.112;7.356;2023-07-31T05:49:35;26.40;99.90
19908;DHT22;10116;53.112;7.356;2023-07-31T05:52:01;26.40;99.90
19908;DHT22;10116;53.112;7.356;2023-07-31T05:54:26;26.40;99.90
19908;DHT22;10116;53.112;7.356;2023-07-31T05:56:52;26.40;99.90
19908;DHT22;10116;53.112;7.356;2023-07-31T05:59:18;26.40;99.90
19908;DHT22;10116;53.112;7.356;2023-07-31T06:01:43;26.40;99.90
19908;DHT22;10116;53.112;7.356;2023-07-31T06:04:09;26.40;99.90
19908;DHT22;10116;53.112;7.356;2023-07-31T06:06:34;26.40;99.90
19908;DHT22;10116;53.112;7.356;2023-07-31T06:09:00;26.40;99.90
19908;DHT22;10116;53.112;7.356;2023-07-31T06:11:26;26.40;99.90
19908;DHT22;10116;53.112;7.356;2023-07-31T06:13:51;26.40;99.90
19908;DHT22;10116;53.112;7.356;2023-07-31T06:16:17;26.40;99.90
19908;DHT22;10116;53.112;7.356;2023-07-31T06:18:43;26.40;99.90
19908;DHT22;10116;53.112;7.356;2023-07-31T06:21:11;26.40;99.90
19908;DHT22;10116;53.112;7.356;2023-07-31T06:23:37;26.40;99.90
19908;DHT22;10116;53.112;7.356;2023-07-31T06:26:02;26.40;99.90
19908;DHT22;10116;53.112;7.356;2023-07-31T06:28:29;26.40;99.90
19908;DHT22;10116;53.112;7.356;2023-07-31T06:30:55;26.40;99.90
19908;DHT22;10116;53.112;7.356;2023-07-31T06:33:21;26.40;99.90
19908;DHT22;10116;53.112;7.356;2023-07-31T06:35:46;26.40;99.90
19908;DHT22;10116;53.112;7.356;2023-07-31T06:38:12;26.40;99.90
19908;DHT22;10116;53.112;7.356;2023-07-31T06:40:37;26.40;99.90
19908;DHT22;10116;53.112;7.356;2023-07-31T06:43:03;26.40;99.90
19908;DHT22;10116;53.112;7.356;2023-07-31T06:45:34;26.40;99.90
19908;DHT22;10116;53.112;7.356;2023-07-31T06:48:00;26.40;99.90
19908;DHT22;10116;53.112;7.356;2023-07-31T06:50:30;26.40;99.90
19908;DHT22;10116;53.112;7.356;2023-07-31T06:52:56;26.30;99.90
19908;DHT22;10116;53.112;7.356;2023-07-31T06:55:22;26.40;99.90
19908;DHT22;10116;53.112;7.356;2023-07-31T06:57:49;26.40;99.90
19908;DHT22;10116;53.112;7.356;2023-07-31T07:00:16;26.40;99.90
19908;DHT22;10116;53.112;7.356;2023-07-31T07:02:42;26.40;99.90
19908;DHT22;10116;53.112;7.356;2023-07-31T07:05:08;26.40;99.90
19908;DHT22;10116;53.112;7.356;2023-07-31T07:07:34;26.50;99.90
19908;DHT22;10116;53.112;7.356;2023-07-31T07:10:00;26.50;99.90
19908;DHT22;10116;53.112;7.356;2023-07-31T07:12:30;26.50;99.90
19908;DHT22;10116;53.112;7.356;2023-07-31T07:14:56;26.50;99.90
19908;DHT22;10116;53.112;7.356;2023-07-31T07:17:23;26.50;99.90
19908;DHT22;10116;53.112;7.356;2023-07-31T07:19:48;26.50;99.90
19908;DHT22;10116;53.112;7.356;2023-07-31T07:22:14;26.50;99.90
19908;DHT22;10116;53.112;7.356;2023-07-31T07:24:40;26.40;99.90
19908;DHT22;10116;53.112;7.356;2023-07-31T07:27:06;26.40;99.90
19908;DHT22;10116;53.112;7.356;2023-07-31T07:29:33;26.40;99.90
19908;DHT22;10116;53.112;7.356;2023-07-31T07:31:59;26.40;99.90
19908;DHT22;10116;53.112;7.356;2023-07-31T07:34:28;26.40;99.90
19908;DHT22;10116;53.112;7.356;2023-07-31T07:36:54;26.40;99.90
19908;DHT22;10116;53.112;7.356;2023-07-31T07:39:20;26.40;99.90
19908;DHT22;10116;53.112;7.356;2023-07-31T07:41:46;26.40;99.90
19908;DHT22;10116;53.112;7.356;2023-07-31T07:44:12;26.40;99.90
19908;DHT22;10116;53.112;7.356;2023-07-31T07:46:38;26.40;99.90
19908;DHT22;10116;53.112;7.356;2023-07-31T07:49:03;26.40;99.90
19908;DHT22;10116;53.112;7.356;2023-07-31T07:51:29;26.40;99.90
19908;DHT22;10116;53.112;7.356;2023-07-31T07:53:57;26.40;99.90
19908;DHT22;10116;53.112;7.356;2023-07-31T07:56:23;26.40;99.90
19908;DHT22;10116;53.112;7.356;2023-07-31T07:58:50;26.40;99.90
19908;DHT22;10116;53.112;7.356;2023-07-31T08:01:16;26.40;99.90
19908;DHT22;10116;53.112;7.356;2023-07-31T08:03:41;26.40;99.90
19908;DHT22;10116;53.112;7.356;2023-07-31T08:06:07;26.40;99.90
19908;DHT22;10116;53.112;7.356;2023-07-31T08:08:38;26.50;99.90
19908;DHT22;10116;53.112;7.356;2023-07-31T08:11:03;26.50;99.90
19908;DHT22;10116;53.112;7.356;2023-07-31T08:13:29;26.50;99.90
19908;DHT22;10116;53.112;7.356;2023-07-31T08:15:55;26.50;99.90
19908;DHT22;10116;53.112;7.356;2023-07-31T08:18:20;26.50;99.90
19908;DHT22;10116;53.112;7.356;2023-07-31T08:20:46;26.60;99.90
19908;DHT22;10116;53.112;7.356;2023-07-31T08:23:12;26.60;99.90
19908;DHT22;10116;53.112;7.356;2023-07-31T08:25:38;26.60;99.90
19908;DHT22;10116;53.112;7.356;2023-07-31T08:28:05;26.60;99.90
19908;DHT22;10116;53.112;7.356;2023-07-31T08:30:31;26.60;99.90
19908;DHT22;10116;53.112;7.356;2023-07-31T08:32:57;26.60;99.90
19908;DHT22;10116;53.112;7.356;2023-07-31T08:35:23;26.60;99.90
19908;DHT22;10116;53.112;7.356;2023-07-31T08:37:49;26.60;99.90
19908;DHT22;10116;53.112;7.356;2023-07-31T08:40:15;26.50;99.90
19908;DHT22;10116;53.112;7.356;2023-07-31T08:42:44;26.60;99.90
19908;DHT22;10116;53.112;7.356;2023-07-31T08:45:14;26.50;99.90
19908;DHT22;10116;53.112;7.356;2023-07-31T08:47:44;26.50;99.90
19908;DHT22;10116;53.112;7.356;2023-07-31T08:50:12;26.50;99.90
19908;DHT22;10116;53.112;7.356;2023-07-31T08:52:38;26.50;99.90
19908;DHT22;10116;53.112;7.356;2023-07-31T08:55:04;26.50;99.90
19908;DHT22;10116;53.112;7.356;2023-07-31T08:57:30;26.50;99.90
19908;DHT22;10116;53.112;7.356;2023-07-31T08:59:57;26.50;99.90
19908;DHT22;10116;53.112;7.356;2023-07-31T09:02:26;26.50;99.90
19908;DHT22;10116;53.112;7.356;2023-07-31T09:04:56;26.50;99.90
19908;DHT22;10116;53.112;7.356;2023-07-31T09:07:22;26.50;99.90
19908;DHT22;10116;53.112;7.356;2023-07-31T09:09:47;26.50;99.90
19908;DHT22;10116;53.112;7.356;2023-07-31T09:12:13;26.50;99.90
19908;DHT22;10116;53.112;7.356;2023-07-31T09:14:39;26.50;99.90
19908;DHT22;10116;53.112;7.356;2023-07-31T09:17:05;26.50;99.90
19908;DHT22;10116;53.112;7.356;2023-07-31T09:19:35;26.50;99.90
19908;DHT22;10116;53.112;7.356;2023-07-31T09:22:05;26.50;99.90
19908;DHT22;10116;53.112;7.356;2023-07-31T09:24:32;26.50;99.90
19908;DHT22;10116;53.112;7.356;2023-07-31T09:27:01;26.50;99.90
19908;DHT22;10116;53.112;7.356;2023-07-31T09:29:29;26.50;99.90
19908;DHT22;10116;53.112;7.356;2023-07-31T09:31:55;26.50;99.90
19908;DHT22;10116;53.112;7.356;2023-07-31T09:34:29;26.50;99.90
19908;DHT22;10116;53.112;7.356;2023-07-31T09:36:59;26.50;99.90
19908;DHT22;10116;53.112;7.356;2023-07-31T09:39:26;26.50;99.90
19908;DHT22;10116;53.112;7.356;2023-07-31T09:41:55;26.50;99.90
19908;DHT22;10116;53.112;7.356;2023-07-31T09:44:21;26.40;99.90
19908;DHT22;10116;53.112;7.356;2023-07-31T09:46:47;26.40;99.90
19908;DHT22;10116;53.112;7.356;2023-07-31T09:49:14;26.40;99.90
19908;DHT22;10116;53.112;7.356;2023-07-31T09:51:41;26.40;99.90
19908;DHT22;10116;53.112;7.356;2023-07-31T09:54:11;26.40;99.90
19908;DHT22;10116;53.112;7.356;2023-07-31T09:56:42;26.40;99.90
19908;DHT22;10116;53.112;7.356;2023-07-31T09:59:11;26.40;99.90
19908;DHT22;10116;53.112;7.356;2023-07-31T10:01:38;26.40;99.90
19908;DHT22;10116;53.112;7.356;2023-07-31T10:04:04;26.40;99.90
19908;DHT22;10116;53.112;7.356;2023-07-31T10:06:31;26.40;99.90
19908;DHT22;10116;53.112;7.356;2023-07-31T10:08:58;26.40;99.90
19908;DHT22;10116;53.112;7.356;2023-07-31T10:11:25;26.40;99.90
19908;DHT22;10116;53.112;7.356;2023-07-31T10:13:54;26.50;99.90
19908;DHT22;10116;53.112;7.356;2023-07-31T10:16:20;26.50;99.90
19908;DHT22;10116;53.112;7.356;2023-07-31T10:18:47;26.50;99.90
19908;DHT22;10116;53.112;7.356;2023-07-31T10:21:14;26.50;99.90
19908;DHT22;10116;53.112;7.356;2023-07-31T10:23:40;26.50;99.90
19908;DHT22;10116;53.112;7.356;2023-07-31T10:26:07;26.60;99.90
19908;DHT22;10116;53.112;7.356;2023-07-31T10:28:34;26.60;99.90
19908;DHT22;10116;53.112;7.356;2023-07-31T10:31:02;26.60;99.90
19908;DHT22;10116;53.112;7.356;2023-07-31T10:33:28;26.60;99.90
19908;DHT22;10116;53.112;7.356;2023-07-31T10:36:22;26.50;99.90
19908;DHT22;10116;53.112;7.356;2023-07-31T10:38:51;26.50;99.90
19908;DHT22;10116;53.112;7.356;2023-07-31T10:41:17;26.50;99.90
19908;DHT22;10116;53.112;7.356;2023-07-31T10:43:42;26.50;99.90
19908;DHT22;10116;53.112;7.356;2023-07-31T10:46:12;26.50;99.90
19908;DHT22;10116;53.112;7.356;2023-07-31T10:48:39;26.50;99.90
19908;DHT22;10116;53.112;7.356;2023-07-31T10:51:08;26.50;99.90
19908;DHT22;10116;53.112;7.356;2023-07-31T10:53:38;26.50;99.90
19908;DHT22;10116;53.112;7.356;2023-07-31T10:56:09;26.50;99.90
19908;DHT22;10116;53.112;7.356;2023-07-31T10:58:37;26.50;99.90
19908;DHT22;10116;53.112;7.356;2023-07-31T11:01:04;26.50;99.90
19908;DHT22;10116;53.112;7.356;2023-07-31T11:03:45;26.50;99.90
19908;DHT22;10116;53.112;7.356;2023-07-31T11:06:13;26.50;99.90
19908;DHT22;10116;53.112;7.356;2023-07-31T11:08:44;26.50;99.90
19908;DHT22;10116;53.112;7.356;2023-07-31T11:11:15;26.50;99.90
19908;DHT22;10116;53.112;7.356;2023-07-31T11:13:51;26.50;99.90
19908;DHT22;10116;53.112;7.356;2023-07-31T11:16:19;26.50;99.90
19908;DHT22;10116;53.112;7.356;2023-07-31T11:18:46;26.40;99.90
19908;DHT22;10116;53.112;7.356;2023-07-31T11:21:18;26.40;99.90
19908;DHT22;10116;53.112;7.356;2023-07-31T11:23:48;26.40;99.90
19908;DHT22;10116;53.112;7.356;2023-07-31T11:26:14;26.40;99.90
19908;DHT22;10116;53.112;7.356;2023-07-31T11:28:40;26.40;99.90
19908;DHT22;10116;53.112;7.356;2023-07-31T11:31:09;26.40;99.90
19908;DHT22;10116;53.112;7.356;2023-07-31T11:33:35;26.40;99.90
19908;DHT22;10116;53.112;7.356;2023-07-31T11:36:01;26.40;99.90
19908;DHT22;10116;53.112;7.356;2023-07-31T11:38:33;26.40;99.90
19908;DHT22;10116;53.112;7.356;2023-07-31T11:41:04;26.40;99.90
19908;DHT22;10116;53.112;7.356;2023-07-31T11:43:31;26.40;99.90
19908;DHT22;10116;53.112;7.356;2023-07-31T11:45:58;26.40;99.90
19908;DHT22;10116;53.112;7.356;2023-07-31T11:50:51;26.40;99.90
19908;DHT22;10116;53.112;7.356;2023-07-31T11:53:20;26.40;99.90
19908;DHT22;10116;53.112;7.356;2023-07-31T11:55:48;26.30;99.90
19908;DHT22;10116;53.112;7.356;2023-07-31T11:58:15;26.40;99.90
19908;DHT22;10116;53.112;7.356;2023-07-31T12:00:41;26.40;99.90
19908;DHT22;10116;53.112;7.356;2023-07-31T12:03:07;26.50;99.90
19908;DHT22;10116;53.112;7.356;2023-07-31T12:05:33;26.50;99.90
19908;DHT22;10116;53.112;7.356;2023-07-31T12:07:58;26.50;99.90
19908;DHT22;10116;53.112;7.356;2023-07-31T12:10:29;26.60;99.90
19908;DHT22;10116;53.112;7.356;2023-07-31T12:13:09;26.60;99.90
19908;DHT22;10116;53.112;7.356;2023-07-31T12:15:44;26.60;99.90
19908;DHT22;10116;53.112;7.356;2023-07-31T12:18:12;26.50;99.90
19908;DHT22;10116;53.112;7.356;2023-07-31T12:20:44;26.50;99.90
19908;DHT22;10116;53.112;7.356;2023-07-31T12:23:30;26.50;99.90
19908;DHT22;10116;53.112;7.356;2023-07-31T12:26:12;26.50;99.90
19908;DHT22;10116;53.112;7.356;2023-07-31T12:31:10;26.40;99.90
19908;DHT22;10116;53.112;7.356;2023-07-31T12:33:38;26.40;99.90
19908;DHT22;10116;53.112;7.356;2023-07-31T12:36:07;26.40;99.90
19908;DHT22;10116;53.112;7.356;2023-07-31T12:38:33;26.30;99.90
19908;DHT22;10116;53.112;7.356;2023-07-31T12:40:58;26.30;99.90
19908;DHT22;10116;53.112;7.356;2023-07-31T12:43:24;26.30;99.90
19908;DHT22;10116;53.112;7.356;2023-07-31T12:45:50;26.30;99.90
19908;DHT22;10116;53.112;7.356;2023-07-31T12:48:16;26.30;99.90
19908;DHT22;10116;53.112;7.356;2023-07-31T12:50:41;26.30;99.90
19908;DHT22;10116;53.112;7.356;2023-07-31T12:53:07;26.30;99.90
19908;DHT22;10116;53.112;7.356;2023-07-31T12:55:33;26.30;99.90
19908;DHT22;10116;53.112;7.356;2023-07-31T12:58:01;26.20;99.90
19908;DHT22;10116;53.112;7.356;2023-07-31T13:00:27;26.20;99.90
19908;DHT22;10116;53.112;7.356;2023-07-31T13:02:52;26.20;99.90
19908;DHT22;10116;53.112;7.356;2023-07-31T13:05:18;26.20;99.90
19908;DHT22;10116;53.112;7.356;2023-07-31T13:07:46;26.20;99.90
19908;DHT22;10116;53.112;7.356;2023-07-31T13:10:11;26.20;99.90
19908;DHT22;10116;53.112;7.356;2023-07-31T13:12:37;26.20;99.90
19908;DHT22;10116;53.112;7.356;2023-07-31T13:15:04;26.20;99.90
19908;DHT22;10116;53.112;7.356;2023-07-31T13:17:30;26.20;99.90
19908;DHT22;10116;53.112;7.356;2023-07-31T13:19:55;26.20;99.90
19908;DHT22;10116;53.112;7.356;2023-07-31T13:22:21;26.20;99.90
19908;DHT22;10116;53.112;7.356;2023-07-31T13:24:47;26.20;99.90
19908;DHT22;10116;53.112;7.356;2023-07-31T13:27:13;26.20;99.90
19908;DHT22;10116;53.112;7.356;2023-07-31T13:29:39;26.20;99.90
19908;DHT22;10116;53.112;7.356;2023-07-31T13:32:04;26.20;99.90
19908;DHT22;10116;53.112;7.356;2023-07-31T13:34:30;26.20;99.90
19908;DHT22;10116;53.112;7.356;2023-07-31T13:36:56;26.20;99.90
19908;DHT22;10116;53.112;7.356;2023-07-31T13:39:21;26.20;99.90
19908;DHT22;10116;53.112;7.356;2023-07-31T13:41:47;26.20;99.90
19908;DHT22;10116;53.112;7.356;2023-07-31T13:44:13;26.20;99.90
19908;DHT22;10116;53.112;7.356;2023-07-31T13:46:38;26.20;99.90
19908;DHT22;10116;53.112;7.356;2023-07-31T13:49:04;26.20;99.90
19908;DHT22;10116;53.112;7.356;2023-07-31T13:51:29;26.20;99.90
19908;DHT22;10116;53.112;7.356;2023-07-31T13:53:55;26.20;99.90
19908;DHT22;10116;53.112;7.356;2023-07-31T13:56:20;26.20;99.90
19908;DHT22;10116;53.112;7.356;2023-07-31T13:58:46;26.20;99.90
19908;DHT22;10116;53.112;7.356;2023-07-31T14:01:12;26.30;99.90
19908;DHT22;10116;53.112;7.356;2023-07-31T14:03:37;26.30;99.90
19908;DHT22;10116;53.112;7.356;2023-07-31T14:06:03;26.30;99.90
19908;DHT22;10116;53.112;7.356;2023-07-31T14:08:29;26.40;99.90
19908;DHT22;10116;53.112;7.356;2023-07-31T14:10:55;26.40;99.90
19908;DHT22;10116;53.112;7.356;2023-07-31T14:13:20;26.40;99.90
19908;DHT22;10116;53.112;7.356;2023-07-31T14:15:46;26.40;99.90
19908;DHT22;10116;53.112;7.356;2023-07-31T14:18:12;26.40;99.90
19908;DHT22;10116;53.112;7.356;2023-07-31T14:20:37;26.40;99.90
19908;DHT22;10116;53.112;7.356;2023-07-31T14:23:03;26.40;99.90
19908;DHT22;10116;53.112;7.356;2023-07-31T14:25:29;26.40;99.90
19908;DHT22;10116;53.112;7.356;2023-07-31T14:27:54;26.40;99.90
19908;DHT22;10116;53.112;7.356;2023-07-31T14:30:20;26.50;99.90
19908;DHT22;10116;53.112;7.356;2023-07-31T14:32:46;26.40;99.90
19908;DHT22;10116;53.112;7.356;2023-07-31T14:35:12;26.50;99.90
19908;DHT22;10116;53.112;7.356;2023-07-31T14:37:42;26.40;99.90
19908;DHT22;10116;53.112;7.356;2023-07-31T14:40:09;26.40;99.90
19908;DHT22;10116;53.112;7.356;2023-07-31T14:42:35;26.40;99.90
19908;DHT22;10116;53.112;7.356;2023-07-31T14:45:01;26.40;99.90
19908;DHT22;10116;53.112;7.356;2023-07-31T14:47:27;26.40;99.90
19908;DHT22;10116;53.112;7.356;2023-07-31T14:49:53;26.40;99.90
19908;DHT22;10116;53.112;7.356;2023-07-31T14:52:18;26.40;99.90
19908;DHT22;10116;53.112;7.356;2023-07-31T14:54:45;26.40;99.90
19908;DHT22;10116;53.112;7.356;2023-07-31T14:57:10;26.30;99.90
19908;DHT22;10116;53.112;7.356;2023-07-31T14:59:36;26.30;99.90
19908;DHT22;10116;53.112;7.356;2023-07-31T15:02:01;26.30;99.90
19908;DHT22;10116;53.112;7.356;2023-07-31T15:04:28;26.30;99.90
19908;DHT22;10116;53.112;7.356;2023-07-31T15:06:53;26.30;99.90
19908;DHT22;10116;53.112;7.356;2023-07-31T15:09:19;26.30;99.90
19908;DHT22;10116;53.112;7.356;2023-07-31T15:11:44;26.30;99.90
19908;DHT22;10116;53.112;7.356;2023-07-31T15:14:10;26.30;99.90
19908;DHT22;10116;53.112;7.356;2023-07-31T15:16:35;26.20;99.90
19908;DHT22;10116;53.112;7.356;2023-07-31T15:19:01;26.20;99.90
19908;DHT22;10116;53.112;7.356;2023-07-31T15:21:27;26.20;99.90
19908;DHT22;10116;53.112;7.356;2023-07-31T15:23:52;26.20;99.90
19908;DHT22;10116;53.112;7.356;2023-07-31T15:26:18;26.20;99.90
19908;DHT22;10116;53.112;7.356;2023-07-31T15:28:49;26.20;99.90
19908;DHT22;10116;53.112;7.356;2023-07-31T15:31:15;26.20;99.90
19908;DHT22;10116;53.112;7.356;2023-07-31T15:33:41;26.20;99.90
19908;DHT22;10116;53.112;7.356;2023-07-31T15:36:06;26.20;99.90